This is the latest recevied weather packets stored in our database for station/object OE7SBH-WX. If no packets are shown the sender has not sent any weather packets the latest 10 day(s).
| Time | Temp. | Humidity | Pressure | Rain* | Wind** | Luminosity | Snow |
|---|---|---|---|---|---|---|---|
| 1778105429 | 11.67° C | 73% | 1015.5 hPa | 0 mm | - | 0 W/m² | - |
| 1778097623 | 14.44° C | 67% | 1013.8 hPa | 0 mm | - | 0 W/m² | - |
| 1778096427 | 15° C | 64% | 1013.2 hPa | 0 mm | - | 0 W/m² | - |
| 1778088024 | 17.78° C | 52% | 1010.9 hPa | 0 mm | - | 40 W/m² | - |
| 1778086216 | 18.89° C | 46% | 1010.3 hPa | 0 mm | - | 103 W/m² | - |
| 1778083221 | 18.33° C | 50% | 1010.5 hPa | 0 mm | - | 93 W/m² | - |
| 1778081433 | 19.44° C | 46% | 1010.3 hPa | 0 mm | - | 99 W/m² | - |
| 1778080828 | 20.56° C | 42% | 1009.9 hPa | 0 mm | - | 151 W/m² | - |
| 1778080228 | 20.56° C | 42% | 1009.7 hPa | 0 mm | - | 132 W/m² | - |
| 1778071233 | 21.67° C | 40% | 1009.5 hPa | 0 mm | - | 301 W/m² | - |
| 1778070624 | 21.11° C | 41% | 1009.5 hPa | 0 mm | - | 271 W/m² | - |
| 1778070024 | 21.11° C | 40% | 1009.6 hPa | 0 mm | - | 461 W/m² | - |
| 1778069432 | 21.67° C | 38% | 1009.8 hPa | 0 mm | - | 580 W/m² | - |
| 1778066433 | 20.56° C | 41% | 1010.3 hPa | 0 mm | - | 397 W/m² | - |
| 1778065832 | 20.56° C | 41% | 1010.2 hPa | 0 mm | - | 419 W/m² | - |
| 1778064632 | 20° C | 42% | 1010.5 hPa | 0 mm | - | 718 W/m² | - |
| 1778061641 | 18.89° C | 46% | 1011.6 hPa | 0 mm | - | 386 W/m² | - |
| 1778057429 | 16.11° C | 62% | 1011.8 hPa | 0 mm | - | 194 W/m² | - |
| 1778054427 | 14.44° C | 63% | 1011.9 hPa | 0 mm | - | 497 W/m² | - |
| 1778043630 | 8.33° C | 85% | 1014 hPa | 0 mm | - | 29 W/m² | - |
| 1778038229 | 8.33° C | 84% | 1014.2 hPa | 0 mm | - | 0 W/m² | - |
| 1778037021 | 8.33° C | 83% | 1014.3 hPa | 0 mm | - | 0 W/m² | - |
| 1778031031 | 9.44° C | 79% | 1015.1 hPa | 0 mm | - | 0 W/m² | - |
| 1778028027 | 10° C | 76% | 1015.1 hPa | 0 mm | - | 0 W/m² | - |
| 1778026829 | 10° C | 76% | 1015.1 hPa | 0 mm | - | 0 W/m² | - |
* Rain latest hour (hover to see other rain measurements)
** Current wind speed in m/s (hover to see current wind gust speed)